Time,TemperatureF,DewpointF,PressureIn,WindDirection,WindDirectionDegrees,WindSpeedMPH,WindSpeedGustMPH,Humidity,HourlyPrecipIn,Conditions,Clouds,dailyrainin,SoftwareType,DateUTC
2013-03-23 00:00:00,49.5,26.1,29.96,NNW,328,1.0,1.0,40,0.00,,,0.00,Wunderground v.1.15,2013-03-23 07:00:00,
2013-03-23 00:10:00,49.1,26.4,29.96,NNW,329,1.0,3.0,41,0.00,,,0.00,Wunderground v.1.15,2013-03-23 07:10:00,
2013-03-23 00:20:00,48.8,26.7,29.97,NNW,329,2.0,2.0,42,0.00,,,0.00,Wunderground v.1.15,2013-03-23 07:20:00,
2013-03-23 00:30:00,48.5,27.0,29.97,NNW,333,2.0,2.0,43,0.00,,,0.00,Wunderground v.1.15,2013-03-23 07:30:00,
2013-03-23 00:40:00,48.3,26.8,29.97,NW,323,4.0,6.0,43,0.00,,,0.00,Wunderground v.1.15,2013-03-23 07:40:00,
2013-03-23 00:50:00,48.3,26.8,29.97,NW,316,4.0,4.0,43,0.00,,,0.00,Wunderground v.1.15,2013-03-23 07:50:00,
2013-03-23 01:00:00,48.2,26.7,29.96,NW,319,3.0,3.0,43,0.00,,,0.00,Wunderground v.1.15,2013-03-23 08:00:00,
2013-03-23 01:10:00,48.0,26.5,29.96,North,350,1.0,1.0,43,0.00,,,0.00,Wunderground v.1.15,2013-03-23 08:10:00,
2013-03-23 01:20:00,47.6,26.7,29.96,NNW,346,1.0,2.0,44,0.00,,,0.00,Wunderground v.1.15,2013-03-23 08:20:00,
2013-03-23 01:30:00,47.1,26.8,29.96,NNW,346,2.0,2.0,45,0.00,,,0.00,Wunderground v.1.15,2013-03-23 08:30:00,
2013-03-23 01:40:00,46.8,26.6,29.96,NNW,336,1.0,2.0,45,0.00,,,0.00,Wunderground v.1.15,2013-03-23 08:40:00,
2013-03-23 01:50:00,46.7,27.0,29.97,NNW,335,1.0,2.0,46,0.00,,,0.00,Wunderground v.1.15,2013-03-23 08:50:00,
2013-03-23 02:00:00,46.5,26.8,29.97,NNW,332,2.0,2.0,46,0.00,,,0.00,Wunderground v.1.15,2013-03-23 09:00:00,
2013-03-23 02:10:00,46.4,27.2,29.97,NNW,332,2.0,2.0,47,0.00,,,0.00,Wunderground v.1.15,2013-03-23 09:10:00,
2013-03-23 02:20:00,46.1,27.0,29.97,NNW,342,1.0,1.0,47,0.00,,,0.00,Wunderground v.1.15,2013-03-23 09:20:00,
2013-03-23 02:30:00,45.8,27.2,29.97,NW,309,2.0,3.0,48,0.00,,,0.00,Wunderground v.1.15,2013-03-23 09:30:00,
2013-03-23 02:40:00,45.7,27.1,29.97,NW,326,2.0,5.0,48,0.00,,,0.00,Wunderground v.1.15,2013-03-23 09:40:00,
2013-03-23 02:50:00,45.7,27.1,29.97,NW,313,5.0,7.0,48,0.00,,,0.00,Wunderground v.1.15,2013-03-23 09:50:00,
2013-03-23 03:00:00,45.5,27.4,29.97,NW,325,3.0,3.0,49,0.00,,,0.00,Wunderground v.1.15,2013-03-23 10:00:00,
2013-03-23 03:10:00,45.2,27.6,29.97,NW,320,3.0,3.0,50,0.00,,,0.00,Wunderground v.1.15,2013-03-23 10:10:00,
2013-03-23 03:20:00,44.8,27.8,29.97,NW,320,3.0,5.0,51,0.00,,,0.00,Wunderground v.1.15,2013-03-23 10:20:00,
2013-03-23 03:30:00,44.3,27.8,29.97,NW,320,1.0,1.0,52,0.00,,,0.00,Wunderground v.1.15,2013-03-23 10:30:00,
2013-03-23 03:40:00,44.1,27.6,29.97,NW,320,0.0,0.0,52,0.00,,,0.00,Wunderground v.1.15,2013-03-23 10:40:00,
2013-03-23 03:50:00,43.6,27.6,29.97,NW,320,0.0,0.0,53,0.00,,,0.00,Wunderground v.1.15,2013-03-23 10:50:00,
2013-03-23 04:00:00,43.1,27.6,29.97,NW,320,0.0,0.0,54,0.00,,,0.00,Wunderground v.1.15,2013-03-23 11:00:00,
2013-03-23 04:10:00,42.8,27.7,29.97,NW,320,1.0,2.0,55,0.00,,,0.00,Wunderground v.1.15,2013-03-23 11:10:00,
2013-03-23 04:20:00,42.3,27.3,29.97,NW,320,1.0,1.0,55,0.00,,,0.00,Wunderground v.1.15,2013-03-23 11:20:00,
2013-03-23 04:30:00,42.1,27.5,29.97,NW,320,0.0,1.0,56,0.00,,,0.00,Wunderground v.1.15,2013-03-23 11:30:00,
2013-03-23 04:40:00,41.8,27.2,29.97,NW,320,0.0,0.0,56,0.00,,,0.00,Wunderground v.1.15,2013-03-23 11:40:00,
2013-03-23 04:50:00,41.6,27.1,29.97,NW,320,1.0,1.0,56,0.00,,,0.00,Wunderground v.1.15,2013-03-23 11:50:00,
2013-03-23 05:00:00,41.6,27.1,29.97,NW,323,1.0,1.0,56,0.00,,,0.00,Wunderground v.1.15,2013-03-23 12:00:00,
2013-03-23 05:10:00,41.5,27.0,29.97,NW,323,0.0,0.0,56,0.00,,,0.00,Wunderground v.1.15,2013-03-23 12:10:00,
2013-03-23 05:20:00,41.3,26.8,29.98,NW,323,0.0,0.0,56,0.00,,,0.00,Wunderground v.1.15,2013-03-23 12:20:00,
2013-03-23 05:30:00,40.9,26.8,29.98,NW,323,0.0,0.0,57,0.00,,,0.00,Wunderground v.1.15,2013-03-23 12:30:00,
2013-03-23 05:40:00,40.8,27.2,29.98,NW,323,1.0,1.0,58,0.00,,,0.00,Wunderground v.1.15,2013-03-23 12:40:00,
2013-03-23 05:50:00,40.6,27.0,29.99,NW,323,0.0,0.0,58,0.00,,,0.00,Wunderground v.1.15,2013-03-23 12:50:00,
2013-03-23 06:00:00,40.5,27.3,29.99,NW,323,0.0,0.0,59,0.00,,,0.00,Wunderground v.1.15,2013-03-23 13:00:00,
2013-03-23 06:10:00,40.2,27.0,29.99,NW,323,0.0,0.0,59,0.00,,,0.00,Wunderground v.1.15,2013-03-23 13:10:00,
2013-03-23 06:20:00,40.1,27.3,29.99,NW,323,0.0,0.0,60,0.00,,,0.00,Wunderground v.1.15,2013-03-23 13:20:00,
2013-03-23 06:30:00,39.6,26.8,30.00,NW,323,0.0,0.0,60,0.00,,,0.00,Wunderground v.1.15,2013-03-23 13:30:00,
2013-03-23 06:40:00,39.5,26.8,30.00,NW,323,0.0,0.0,60,0.00,,,0.00,Wunderground v.1.15,2013-03-23 13:40:00,
2013-03-23 06:50:00,39.2,26.9,30.00,NW,323,0.0,0.0,61,0.00,,,0.00,Wunderground v.1.15,2013-03-23 13:50:00,
2013-03-23 07:00:00,38.9,26.6,30.01,NW,323,0.0,0.0,61,0.00,,,0.00,Wunderground v.1.15,2013-03-23 14:00:00,
2013-03-23 07:10:00,38.8,26.5,30.01,NW,323,0.0,0.0,61,0.00,,,0.00,Wunderground v.1.15,2013-03-23 14:10:00,
2013-03-23 07:20:00,38.6,26.7,30.01,NW,323,0.0,0.0,62,0.00,,,0.00,Wunderground v.1.15,2013-03-23 14:20:00,
2013-03-23 07:30:00,38.3,26.4,30.02,NW,323,0.0,0.0,62,0.00,,,0.00,Wunderground v.1.15,2013-03-23 14:30:00,
2013-03-23 07:40:00,37.9,26.0,30.02,NW,323,0.0,0.0,62,0.00,,,0.00,Wunderground v.1.15,2013-03-23 14:40:00,
2013-03-23 07:50:00,37.9,26.4,30.02,NW,323,0.0,0.0,63,0.00,,,0.00,Wunderground v.1.15,2013-03-23 14:50:00,
2013-03-23 08:00:00,38.2,27.8,30.03,NW,323,0.0,0.0,66,0.00,,,0.00,Wunderground v.1.15,2013-03-23 15:00:00,
2013-03-23 08:10:00,38.8,29.1,30.03,NW,323,0.0,0.0,68,0.00,,,0.00,Wunderground v.1.15,2013-03-23 15:10:00,
2013-03-23 08:20:00,39.8,30.1,30.04,NW,323,0.0,0.0,68,0.00,,,0.00,Wunderground v.1.15,2013-03-23 15:20:00,
2013-03-23 08:30:00,40.3,30.2,30.04,NW,323,0.0,0.0,67,0.00,,,0.00,Wunderground v.1.15,2013-03-23 15:30:00,
2013-03-23 08:40:00,41.5,29.4,30.04,NNW,329,2.0,3.0,62,0.00,,,0.00,Wunderground v.1.15,2013-03-23 15:40:00,
2013-03-23 08:50:00,42.9,28.7,30.05,NW,326,3.0,3.0,57,0.00,,,0.00,Wunderground v.1.15,2013-03-23 15:50:00,
2013-03-23 09:00:00,44.6,29.0,30.05,NW,320,2.0,2.0,54,0.00,,,0.00,Wunderground v.1.15,2013-03-23 16:00:00,
2013-03-23 09:10:00,45.7,27.6,30.05,NW,316,3.0,5.0,49,0.00,,,0.00,Wunderground v.1.15,2013-03-23 16:10:00,
2013-03-23 09:20:00,47.3,28.6,30.05,NW,322,2.0,7.0,48,0.00,,,0.00,Wunderground v.1.15,2013-03-23 16:20:00,
2013-03-23 09:30:00,48.2,27.8,30.05,NW,322,3.0,4.0,45,0.00,,,0.00,Wunderground v.1.15,2013-03-23 16:30:00,
2013-03-23 09:40:00,49.4,26.7,30.05,NW,312,4.0,4.0,41,0.00,,,0.00,Wunderground v.1.15,2013-03-23 16:40:00,
2013-03-23 09:50:00,51.0,26.9,30.05,NNE,13,3.0,3.0,39,0.00,,,0.00,Wunderground v.1.15,2013-03-23 16:50:00,
2013-03-23 10:00:00,52.3,26.8,30.05,North,0,2.0,2.0,37,0.00,,,0.00,Wunderground v.1.15,2013-03-23 17:00:00,
2013-03-23 10:10:00,52.8,26.6,30.05,NNW,337,2.0,5.0,36,0.00,,,0.00,Wunderground v.1.15,2013-03-23 17:10:00,
2013-03-23 10:20:00,53.2,26.2,30.05,NW,316,4.0,7.0,35,0.00,,,0.00,Wunderground v.1.15,2013-03-23 17:20:00,
2013-03-23 10:30:00,53.6,26.6,30.05,NW,313,4.0,4.0,35,0.00,,,0.00,Wunderground v.1.15,2013-03-23 17:30:00,
2013-03-23 10:40:00,54.8,26.9,30.05,NW,320,2.0,2.0,34,0.00,,,0.00,Wunderground v.1.15,2013-03-23 17:40:00,
2013-03-23 10:50:00,55.7,27.0,30.05,NW,311,3.0,4.0,33,0.00,,,0.00,Wunderground v.1.15,2013-03-23 17:50:00,
2013-03-23 11:00:00,56.5,27.7,30.05,NW,315,2.0,2.0,33,0.00,,,0.00,Wunderground v.1.15,2013-03-23 18:00:00,
2013-03-23 11:10:00,57.3,26.9,30.05,NW,313,1.0,1.0,31,0.00,,,0.00,Wunderground v.1.15,2013-03-23 18:10:00,
2013-03-23 11:20:00,58.1,25.1,30.05,NW,313,2.0,2.0,28,0.00,,,0.00,Wunderground v.1.15,2013-03-23 18:20:00,
2013-03-23 11:30:00,59.5,26.3,30.04,NW,313,2.0,2.0,28,0.00,,,0.00,Wunderground v.1.15,2013-03-23 18:30:00,
2013-03-23 11:40:00,60.2,30.2,30.04,NW,313,1.0,2.0,32,0.00,,,0.00,Wunderground v.1.15,2013-03-23 18:40:00,
2013-03-23 11:50:00,60.1,26.0,30.04,NW,305,2.0,2.0,27,0.00,,,0.00,Wunderground v.1.15,2013-03-23 18:50:00,
2013-03-23 12:00:00,61.5,28.1,30.03,NW,305,1.0,1.0,28,0.00,,,0.00,Wunderground v.1.15,2013-03-23 19:00:00,
2013-03-23 12:10:00,61.5,28.1,30.03,NW,316,2.0,5.0,28,0.00,,,0.00,Wunderground v.1.15,2013-03-23 19:10:00,
2013-03-23 12:20:00,62.9,29.3,30.03,NW,311,2.0,2.0,28,0.00,,,0.00,Wunderground v.1.15,2013-03-23 19:20:00,
2013-03-23 12:30:00,63.5,28.9,30.02,NW,305,4.0,4.0,27,0.00,,,0.00,Wunderground v.1.15,2013-03-23 19:30:00,
2013-03-23 12:40:00,64.2,27.6,30.02,WNW,301,3.0,3.0,25,0.00,,,0.00,Wunderground v.1.15,2013-03-23 19:40:00,
2013-03-23 12:50:00,64.2,26.6,30.01,NW,308,4.0,6.0,24,0.00,,,0.00,Wunderground v.1.15,2013-03-23 19:50:00,
2013-03-23 13:00:00,65.3,27.5,30.01,NW,309,3.0,3.0,24,0.00,,,0.00,Wunderground v.1.15,2013-03-23 20:00:00,
2013-03-23 13:10:00,67.6,33.3,30.01,NW,308,1.0,1.0,28,0.00,,,0.00,Wunderground v.1.15,2013-03-23 20:10:00,
2013-03-23 13:20:00,66.8,29.8,30.01,NNW,332,4.0,5.0,25,0.00,,,0.00,Wunderground v.1.15,2013-03-23 20:20:00,
2013-03-23 13:30:00,66.8,27.8,30.00,NW,318,3.0,3.0,23,0.00,,,0.00,Wunderground v.1.15,2013-03-23 20:30:00,
2013-03-23 13:40:00,68.1,27.8,30.00,NNW,332,2.0,2.0,22,0.00,,,0.00,Wunderground v.1.15,2013-03-23 20:40:00,
2013-03-23 13:50:00,69.1,27.5,30.00,NNW,329,3.0,3.0,21,0.00,,,0.00,Wunderground v.1.15,2013-03-23 20:50:00,
2013-03-23 14:00:00,68.6,27.1,29.99,NW,319,3.0,3.0,21,0.00,,,0.00,Wunderground v.1.15,2013-03-23 21:00:00,
2013-03-23 14:10:00,69.6,27.9,29.99,NW,322,2.0,2.0,21,0.00,,,0.00,Wunderground v.1.15,2013-03-23 21:10:00,
2013-03-23 14:20:00,69.3,26.5,29.98,NW,309,2.0,4.0,20,0.00,,,0.00,Wunderground v.1.15,2013-03-23 21:20:00,
2013-03-23 14:30:00,69.4,26.6,29.98,NW,319,3.0,3.0,20,0.00,,,0.00,Wunderground v.1.15,2013-03-23 21:30:00,
2013-03-23 14:40:00,69.9,25.7,29.98,NW,316,2.0,2.0,19,0.00,,,0.00,Wunderground v.1.15,2013-03-23 21:40:00,
2013-03-23 14:50:00,69.8,29.2,29.97,NW,309,1.0,2.0,22,0.00,,,0.00,Wunderground v.1.15,2013-03-23 21:50:00,
2013-03-23 15:00:00,70.6,31.0,29.97,NW,306,1.0,1.0,23,0.00,,,0.00,Wunderground v.1.15,2013-03-23 22:00:00,
2013-03-23 15:10:00,72.1,28.8,29.97,NNW,333,1.0,1.0,20,0.00,,,0.00,Wunderground v.1.15,2013-03-23 22:10:00,
2013-03-23 15:20:00,71.6,31.8,29.96,NNW,330,1.0,2.0,23,0.00,,,0.00,Wunderground v.1.15,2013-03-23 22:20:00,
2013-03-23 15:30:00,72.3,29.0,29.96,NW,326,2.0,2.0,20,0.00,,,0.00,Wunderground v.1.15,2013-03-23 22:30:00,
2013-03-23 15:40:00,72.5,26.5,29.96,NW,326,0.0,0.0,18,0.00,,,0.00,Wunderground v.1.15,2013-03-23 22:40:00,
2013-03-23 15:50:00,69.9,31.4,29.95,NW,326,0.0,0.0,24,0.00,,,0.00,Wunderground v.1.15,2013-03-23 22:50:00,
2013-03-23 16:00:00,71.5,30.6,29.94,NW,326,0.0,0.0,22,0.00,,,0.00,Wunderground v.1.15,2013-03-23 23:00:00,
2013-03-23 16:10:00,72.0,26.1,29.94,NW,326,1.0,2.0,18,0.00,,,0.00,Wunderground v.1.15,2013-03-23 23:10:00,
2013-03-23 16:20:00,71.6,25.8,29.94,NW,326,2.0,2.0,18,0.00,,,0.00,Wunderground v.1.15,2013-03-23 23:20:00,
2013-03-23 16:30:00,69.4,26.6,29.94,NW,322,1.0,2.0,20,0.00,,,0.00,Wunderground v.1.15,2013-03-23 23:30:00,
2013-03-23 16:40:00,68.8,28.4,29.94,NW,322,1.0,1.0,22,0.00,,,0.00,Wunderground v.1.15,2013-03-23 23:40:00,
2013-03-23 16:50:00,71.5,27.0,29.94,NW,322,2.0,2.0,19,0.00,,,0.00,Wunderground v.1.15,2013-03-23 23:50:00,
2013-03-23 17:00:00,72.8,24.0,29.94,NW,322,2.0,2.0,16,0.00,,,0.00,Wunderground v.1.15,2013-03-24 00:00:00,
2013-03-23 17:10:00,70.8,23.8,29.94,NW,320,2.0,2.0,17,0.00,,,0.00,Wunderground v.1.15,2013-03-24 00:10:00,
2013-03-23 17:20:00,72.3,25.0,29.94,NW,320,1.0,1.0,17,0.00,,,0.00,Wunderground v.1.15,2013-03-24 00:20:00,
2013-03-23 17:30:00,72.3,27.7,29.93,NW,320,0.0,0.0,19,0.00,,,0.00,Wunderground v.1.15,2013-03-24 00:30:00,
2013-03-23 17:40:00,72.5,22.2,29.93,NW,320,1.0,1.0,15,0.00,,,0.00,Wunderground v.1.15,2013-03-24 00:40:00,
2013-03-23 17:50:00,72.8,24.0,29.93,NW,320,0.0,0.0,16,0.00,,,0.00,Wunderground v.1.15,2013-03-24 00:50:00,
2013-03-23 18:00:00,73.2,22.7,29.93,NW,320,0.0,0.0,15,0.00,,,0.00,Wunderground v.1.15,2013-03-24 01:00:00,
2013-03-23 18:10:00,72.7,25.3,29.93,NW,320,0.0,0.0,17,0.00,,,0.00,Wunderground v.1.15,2013-03-24 01:10:00,
2013-03-23 18:20:00,72.5,22.2,29.93,NW,320,0.0,0.0,15,0.00,,,0.00,Wunderground v.1.15,2013-03-24 01:20:00,
2013-03-23 18:30:00,72.3,23.6,29.93,NW,320,0.0,0.0,16,0.00,,,0.00,Wunderground v.1.15,2013-03-24 01:30:00,
2013-03-23 18:40:00,72.0,23.3,29.93,NW,320,0.0,0.0,16,0.00,,,0.00,Wunderground v.1.15,2013-03-24 01:40:00,
2013-03-23 18:50:00,71.1,22.6,29.93,NW,320,0.0,0.0,16,0.00,,,0.00,Wunderground v.1.15,2013-03-24 01:50:00,
2013-03-23 19:00:00,70.1,27.1,29.93,NW,320,0.0,0.0,20,0.00,,,0.00,Wunderground v.1.15,2013-03-24 02:00:00,
2013-03-23 19:10:00,68.4,25.7,29.93,NW,320,0.0,0.0,20,0.00,,,0.00,Wunderground v.1.15,2013-03-24 02:10:00,
2013-03-23 19:20:00,67.1,28.0,29.93,NW,320,0.0,0.0,23,0.00,,,0.00,Wunderground v.1.15,2013-03-24 02:20:00,
2013-03-23 19:30:00,65.6,28.8,29.94,NW,320,0.0,0.0,25,0.00,,,0.00,Wunderground v.1.15,2013-03-24 02:30:00,
2013-03-23 19:40:00,64.0,26.4,29.94,NW,320,0.0,0.0,24,0.00,,,0.00,Wunderground v.1.15,2013-03-24 02:40:00,
2013-03-23 19:50:00,62.9,26.5,29.94,NW,320,0.0,0.0,25,0.00,,,0.00,Wunderground v.1.15,2013-03-24 02:50:00,
2013-03-23 20:00:00,61.8,26.5,29.94,NW,320,0.0,0.0,26,0.00,,,0.00,Wunderground v.1.15,2013-03-24 03:00:00,
2013-03-23 20:10:00,60.7,27.4,29.94,NW,320,0.0,0.0,28,0.00,,,0.00,Wunderground v.1.15,2013-03-24 03:10:00,
2013-03-23 20:20:00,59.6,28.1,29.94,NW,320,0.0,0.0,30,0.00,,,0.00,Wunderground v.1.15,2013-03-24 03:20:00,
2013-03-23 20:30:00,58.4,29.4,29.95,NW,320,0.0,0.0,33,0.00,,,0.00,Wunderground v.1.15,2013-03-24 03:30:00,
2013-03-23 20:40:00,57.2,29.8,29.95,NW,320,0.0,0.0,35,0.00,,,0.00,Wunderground v.1.15,2013-03-24 03:40:00,
2013-03-23 20:50:00,56.2,30.2,29.96,NW,320,0.0,0.0,37,0.00,,,0.00,Wunderground v.1.15,2013-03-24 03:50:00,
2013-03-23 21:00:00,55.3,30.1,29.96,NW,320,0.0,0.0,38,0.00,,,0.00,Wunderground v.1.15,2013-03-24 04:00:00,
2013-03-23 21:10:00,54.7,30.8,29.96,NW,320,0.0,0.0,40,0.00,,,0.00,Wunderground v.1.15,2013-03-24 04:10:00,
2013-03-23 21:20:00,54.2,31.6,29.96,NW,320,0.0,0.0,42,0.00,,,0.00,Wunderground v.1.15,2013-03-24 04:20:00,
2013-03-23 21:30:00,53.8,31.8,29.97,NW,320,0.0,0.0,43,0.00,,,0.00,Wunderground v.1.15,2013-03-24 04:30:00,
2013-03-23 21:40:00,53.5,31.5,29.97,NW,320,0.0,0.0,43,0.00,,,0.00,Wunderground v.1.15,2013-03-24 04:40:00,
2013-03-23 21:50:00,53.2,31.8,29.97,NW,320,0.0,0.0,44,0.00,,,0.00,Wunderground v.1.15,2013-03-24 04:50:00,
2013-03-23 22:00:00,52.8,32.6,29.97,NW,320,0.0,0.0,46,0.00,,,0.00,Wunderground v.1.15,2013-03-24 05:00:00,
2013-03-23 22:10:00,52.5,32.8,29.97,NW,320,0.0,0.0,47,0.00,,,0.00,Wunderground v.1.15,2013-03-24 05:10:00,
2013-03-23 22:20:00,52.0,32.9,29.97,NW,320,0.0,0.0,48,0.00,,,0.00,Wunderground v.1.15,2013-03-24 05:20:00,
2013-03-23 22:30:00,51.7,33.6,29.97,NW,320,0.0,0.0,50,0.00,,,0.00,Wunderground v.1.15,2013-03-24 05:30:00,
2013-03-23 22:40:00,51.3,33.8,29.97,NW,320,0.0,0.0,51,0.00,,,0.00,Wunderground v.1.15,2013-03-24 05:40:00,
2013-03-23 22:50:00,50.8,34.3,29.97,NW,320,1.0,1.0,53,0.00,,,0.00,Wunderground v.1.15,2013-03-24 05:50:00,
2013-03-23 23:00:00,50.1,35.0,29.97,NW,320,0.0,0.0,56,0.00,,,0.00,Wunderground v.1.15,2013-03-24 06:00:00,
2013-03-23 23:10:00,49.4,35.2,29.97,NW,320,0.0,2.0,58,0.00,,,0.00,Wunderground v.1.15,2013-03-24 06:10:00,
2013-03-23 23:20:00,48.8,35.1,29.97,NW,322,1.0,2.0,59,0.00,,,0.00,Wunderground v.1.15,2013-03-24 06:20:00,
2013-03-23 23:30:00,47.9,35.1,29.97,NW,323,1.0,1.0,61,0.00,,,0.00,Wunderground v.1.15,2013-03-24 06:30:00,
2013-03-23 23:40:00,47.0,34.6,29.97,NW,325,0.0,0.0,62,0.00,,,0.00,Wunderground v.1.15,2013-03-24 06:40:00,
2013-03-23 23:50:00,46.0,34.9,29.97,NW,325,1.0,1.0,65,0.00,,,0.00,Wunderground v.1.15,2013-03-24 06:50:00,